createdAt,value
2018-07-21T00:01:47.947Z,228.50
2018-07-21T00:04:18.872Z,224.90
2018-07-21T00:06:50.326Z,231.63
2018-07-21T00:09:21.354Z,210.88
2018-07-21T00:11:52.620Z,221.77
2018-07-21T00:14:23.629Z,221.55
2018-07-21T00:16:54.722Z,222.37
2018-07-21T00:22:29.540Z,211.32
2018-07-21T00:25:00.390Z,227.82
2018-07-21T00:27:31.590Z,222.27
2018-07-21T00:30:02.895Z,223.32
2018-07-21T00:32:34.113Z,223.47
2018-07-21T00:35:05.480Z,222.55
2018-07-21T00:37:36.362Z,219.28
2018-07-21T00:40:12.107Z,214.97
2018-07-21T00:42:43.106Z,224.07
2018-07-21T00:45:14.240Z,215.05
2018-07-21T00:47:46.166Z,222.50
2018-07-21T00:50:17.180Z,219.75
2018-07-21T00:52:48.143Z,228.83
2018-07-21T00:55:19.158Z,226.27
2018-07-21T00:57:50.123Z,215.20
2018-07-21T01:00:21.130Z,218.20
2018-07-21T01:02:52.282Z,220.63
2018-07-21T01:05:23.810Z,222.65
2018-07-21T01:07:54.967Z,224.45
2018-07-21T01:10:26.505Z,223.60
2018-07-21T01:12:57.567Z,233.53
2018-07-21T01:15:28.913Z,232.57
2018-07-21T01:17:59.819Z,223.40
2018-07-21T01:20:31.331Z,219.03
2018-07-21T01:23:03.282Z,212.63
2018-07-21T01:25:37.485Z,219.28
2018-07-21T01:28:10.037Z,216.25
2018-07-21T01:30:41.058Z,219.00
2018-07-21T01:33:12.911Z,220.40
2018-07-21T01:35:43.946Z,224.27
2018-07-21T01:38:15.188Z,221.10
2018-07-21T01:40:46.251Z,220.22
2018-07-21T01:43:17.408Z,218.57
2018-07-21T01:45:48.411Z,218.63
2018-07-21T01:48:19.351Z,217.75
2018-07-21T01:50:50.270Z,212.38
2018-07-21T01:53:25.870Z,209.25
2018-07-21T01:55:57.352Z,213.95
2018-07-21T01:58:28.426Z,217.57
2018-07-21T02:00:59.572Z,215.18
2018-07-21T02:03:30.855Z,218.78
2018-07-21T02:06:01.854Z,221.15
2018-07-21T02:08:34.291Z,228.12
2018-07-21T02:11:05.639Z,223.55
2018-07-21T02:13:37.676Z,211.47
2018-07-21T02:16:10.116Z,217.53
2018-07-21T02:18:41.105Z,213.28
2018-07-21T02:21:12.150Z,211.22
2018-07-21T02:23:43.524Z,210.88
2018-07-21T02:26:14.538Z,207.22
2018-07-21T02:28:45.732Z,215.75
2018-07-21T02:31:16.604Z,218.60
2018-07-21T02:33:47.670Z,212.53
2018-07-21T02:36:19.081Z,215.07
2018-07-21T02:38:50.150Z,221.00
2018-07-21T02:41:21.468Z,221.60
2018-07-21T02:43:52.375Z,214.80
2018-07-21T02:46:23.400Z,205.92
2018-07-21T02:48:54.409Z,209.35
2018-07-21T02:51:25.510Z,218.33
2018-07-21T02:53:56.563Z,213.65
2018-07-21T02:56:27.527Z,213.32
2018-07-21T02:58:58.566Z,211.15
2018-07-21T03:01:29.500Z,220.57
2018-07-21T03:04:00.543Z,259.92
2018-07-21T03:06:31.507Z,220.55
2018-07-21T03:09:02.685Z,215.22
2018-07-21T03:11:33.643Z,209.62
2018-07-21T03:14:04.691Z,212.53
2018-07-21T03:16:35.630Z,207.15
2018-07-21T03:19:06.456Z,204.40
2018-07-21T03:21:37.403Z,211.25
2018-07-21T03:24:08.363Z,216.75
2018-07-21T03:26:39.303Z,210.88
2018-07-21T03:29:10.417Z,215.32
2018-07-21T03:31:41.355Z,210.82
2018-07-21T03:34:12.359Z,211.92
2018-07-21T03:36:43.338Z,247.63
2018-07-21T03:39:14.410Z,217.15
2018-07-21T03:41:45.608Z,211.30
2018-07-21T03:44:17.119Z,214.50
2018-07-21T03:46:48.387Z,219.93
2018-07-21T03:49:19.456Z,217.60
2018-07-21T03:51:50.356Z,208.65
2018-07-21T03:54:21.459Z,210.02
2018-07-21T03:56:52.619Z,208.93
2018-07-21T03:59:24.581Z,211.18
2018-07-21T04:01:55.864Z,215.77
2018-07-21T04:04:28.575Z,215.20
2018-07-21T04:06:59.701Z,210.43
2018-07-21T04:09:41.699Z,215.22
2018-07-21T04:12:12.523Z,212.82
2018-07-21T04:14:43.440Z,217.25
2018-07-21T04:17:22.983Z,221.15
2018-07-21T04:19:54.226Z,212.15
2018-07-21T04:22:25.881Z,218.07
2018-07-21T04:24:57.074Z,217.68
2018-07-21T04:27:28.075Z,218.02
2018-07-21T04:29:59.052Z,220.93
2018-07-21T04:32:30.059Z,217.05
2018-07-21T04:35:01.142Z,215.15
2018-07-21T04:37:32.220Z,214.60
2018-07-21T04:40:03.794Z,217.13
2018-07-21T04:42:34.795Z,212.10
2018-07-21T04:45:05.735Z,216.12
2018-07-21T04:47:36.733Z,217.50
2018-07-21T04:50:10.152Z,217.07
2018-07-21T04:52:41.026Z,211.05
2018-07-21T04:55:13.387Z,216.97
2018-07-21T04:57:44.353Z,214.70
2018-07-21T05:00:15.618Z,230.65
2018-07-21T05:02:47.470Z,224.18
2018-07-21T05:05:18.423Z,214.95
2018-07-21T05:07:49.562Z,210.00
2018-07-21T05:10:20.487Z,214.95
2018-07-21T05:12:51.632Z,221.37
2018-07-21T05:15:22.750Z,212.45
2018-07-21T05:17:53.854Z,215.92
2018-07-21T05:20:24.724Z,223.13
2018-07-21T05:22:55.765Z,211.20
2018-07-21T05:25:28.347Z,215.22
2018-07-21T05:28:00.267Z,213.90
2018-07-21T05:30:32.080Z,215.12
2018-07-21T05:33:03.780Z,225.87
2018-07-21T05:35:35.774Z,214.35
2018-07-21T05:38:07.744Z,213.22
2018-07-21T05:40:39.864Z,210.00
2018-07-21T05:43:12.596Z,218.80
2018-07-21T05:45:43.952Z,219.62
2018-07-21T05:48:14.847Z,213.47
2018-07-21T05:50:45.811Z,222.70
2018-07-21T05:53:16.956Z,219.50
2018-07-21T05:55:47.891Z,211.85
2018-07-21T05:58:18.954Z,208.65
2018-07-21T06:00:50.119Z,219.20
2018-07-21T06:03:21.364Z,212.17
2018-07-21T06:05:52.360Z,221.70
2018-07-21T06:08:26.151Z,215.90
2018-07-21T06:10:57.164Z,216.12
2018-07-21T06:13:28.390Z,221.90
2018-07-21T06:15:59.581Z,212.82
2018-07-21T06:18:30.696Z,218.55
2018-07-21T06:21:02.191Z,224.35
2018-07-21T06:23:34.503Z,220.30
2018-07-21T06:26:05.502Z,230.03
2018-07-21T06:28:36.580Z,230.62
2018-07-21T06:31:07.744Z,236.30
2018-07-21T06:33:38.791Z,219.05
2018-07-21T06:36:11.226Z,218.82
2018-07-21T06:38:42.815Z,217.03
2018-07-21T06:41:13.903Z,210.30
2018-07-21T06:43:44.982Z,214.45
2018-07-21T06:46:15.994Z,221.22
2018-07-21T06:48:46.972Z,216.35
2018-07-21T06:51:18.931Z,220.48
2018-07-21T06:53:49.975Z,213.62
2018-07-21T06:56:20.952Z,213.03
2018-07-21T06:58:52.276Z,218.10
2018-07-21T07:01:23.585Z,216.93
2018-07-21T07:03:54.688Z,229.05
2018-07-21T07:06:26.343Z,227.75
2018-07-21T07:08:57.764Z,223.30
2018-07-21T07:11:29.118Z,224.77
2018-07-21T07:14:00.170Z,222.65
2018-07-21T07:16:31.553Z,228.05
2018-07-21T07:19:02.838Z,216.70
2018-07-21T07:21:34.024Z,215.82
2018-07-21T07:24:04.956Z,218.42
2018-07-21T07:26:35.932Z,221.95
2018-07-21T07:29:07.039Z,218.05
2018-07-21T07:31:38.083Z,217.07
2018-07-21T07:34:09.185Z,220.80
2018-07-21T07:36:40.317Z,217.15
2018-07-21T07:39:12.061Z,220.37
2018-07-21T07:41:42.887Z,214.45
2018-07-21T07:44:13.801Z,225.07
2018-07-21T07:46:45.326Z,214.68
2018-07-21T07:49:16.491Z,217.77
2018-07-21T07:51:47.373Z,222.80
2018-07-21T07:54:19.024Z,218.22
2018-07-21T07:56:50.088Z,214.70
2018-07-21T07:59:21.168Z,213.60
2018-07-21T08:01:52.736Z,220.22
2018-07-21T08:04:23.815Z,220.10
2018-07-21T08:06:54.848Z,221.35
2018-07-21T08:09:26.833Z,223.38
2018-07-21T08:11:58.032Z,230.20
2018-07-21T08:14:29.308Z,231.32
2018-07-21T08:17:00.323Z,227.53
2018-07-21T08:19:31.383Z,236.15
2018-07-21T08:22:03.564Z,231.07
2018-07-21T08:24:34.568Z,235.68
2018-07-21T08:27:05.380Z,231.20
2018-07-21T08:29:36.383Z,239.68
2018-07-21T08:32:07.695Z,227.28
2018-07-21T08:34:38.573Z,233.50
2018-07-21T08:37:10.026Z,221.70
2018-07-21T08:39:41.181Z,212.93
2018-07-21T08:42:12.397Z,218.57
2018-07-21T08:44:43.408Z,223.32
2018-07-21T08:47:15.065Z,227.07
2018-07-21T08:49:47.143Z,221.25
2018-07-21T08:52:18.047Z,221.03
2018-07-21T08:54:50.618Z,219.50
2018-07-21T08:57:21.707Z,214.35
2018-07-21T08:59:52.923Z,226.50
2018-07-21T09:02:23.967Z,224.45
2018-07-21T09:04:55.234Z,221.28
2018-07-21T09:07:26.034Z,236.35
2018-07-21T09:09:57.255Z,227.97
2018-07-21T09:12:28.551Z,225.68
2018-07-21T09:14:59.667Z,230.95
2018-07-21T09:17:30.696Z,221.32
2018-07-21T09:20:01.786Z,232.35
2018-07-21T09:22:32.759Z,227.32
2018-07-21T09:25:04.052Z,228.30
2018-07-21T09:27:35.185Z,227.32
2018-07-21T09:30:06.393Z,233.07
2018-07-21T09:32:37.623Z,243.60
2018-07-21T09:35:11.172Z,230.05
2018-07-21T09:37:42.152Z,228.88
2018-07-21T09:40:13.543Z,227.72
2018-07-21T09:42:44.432Z,220.48
2018-07-21T09:45:17.476Z,226.07
2018-07-21T09:47:48.469Z,214.85
2018-07-21T09:50:19.948Z,218.15
2018-07-21T09:52:50.940Z,221.93
2018-07-21T09:55:21.988Z,229.60
2018-07-21T09:57:52.980Z,239.90
2018-07-21T10:00:29.219Z,224.75
2018-07-21T10:03:02.356Z,230.77
2018-07-21T10:05:33.921Z,231.10
2018-07-21T10:08:06.697Z,268.48
2018-07-21T10:10:38.133Z,244.47
2018-07-21T10:13:11.165Z,241.68
2018-07-21T10:15:41.817Z,230.50
2018-07-21T10:18:13.138Z,233.75
2018-07-21T10:20:44.048Z,226.60
2018-07-21T10:23:14.869Z,230.55
2018-07-21T10:25:51.128Z,225.32
2018-07-21T10:28:27.115Z,228.15
2018-07-21T10:30:58.162Z,217.70
2018-07-21T10:33:29.109Z,230.03
2018-07-21T10:36:00.203Z,221.87
2018-07-21T10:38:31.111Z,229.87
2018-07-21T10:41:03.230Z,224.05
2018-07-21T10:43:37.868Z,226.58
2018-07-21T10:46:09.633Z,227.40
2018-07-21T10:48:40.686Z,228.60
2018-07-21T10:51:11.715Z,227.55
2018-07-21T10:53:43.082Z,267.40
2018-07-21T10:56:14.651Z,235.55
2018-07-21T10:58:45.863Z,231.97
2018-07-21T11:01:16.827Z,223.95
2018-07-21T11:03:47.787Z,227.30
2018-07-21T11:06:19.023Z,228.32
2018-07-21T11:08:50.185Z,235.08
2018-07-21T11:11:21.330Z,238.87
2018-07-21T11:13:52.888Z,223.18
2018-07-21T11:16:24.036Z,234.70
2018-07-21T11:18:56.066Z,224.55
2018-07-21T11:21:27.670Z,228.92
2018-07-21T11:23:58.721Z,233.93
2018-07-21T11:26:29.788Z,233.35
2018-07-21T11:29:01.104Z,243.30
2018-07-21T11:31:32.334Z,233.50
2018-07-21T11:34:03.627Z,232.15
2018-07-21T11:36:34.592Z,233.82
2018-07-21T11:39:07.667Z,233.57
2018-07-21T11:41:38.483Z,223.18
2018-07-21T11:44:10.331Z,224.00
2018-07-21T11:46:41.227Z,225.68
2018-07-21T11:49:12.613Z,222.02
2018-07-21T11:51:43.720Z,220.02
2018-07-21T11:54:15.105Z,224.52
2018-07-21T11:56:46.308Z,231.02
2018-07-21T11:59:17.444Z,237.95
2018-07-21T12:01:48.804Z,225.53
2018-07-21T12:04:19.782Z,225.05
2018-07-21T12:06:50.649Z,259.57
2018-07-21T12:09:21.605Z,250.15
2018-07-21T12:11:52.597Z,257.70
2018-07-21T12:14:24.080Z,235.88
2018-07-21T12:16:55.476Z,247.88
2018-07-21T12:19:26.824Z,238.95
2018-07-21T12:21:57.977Z,234.62
2018-07-21T12:24:29.190Z,246.32
2018-07-21T12:27:01.172Z,236.10
2018-07-21T12:29:32.164Z,239.80
2018-07-21T12:32:04.243Z,245.02
2018-07-21T12:34:35.889Z,244.05
2018-07-21T12:37:07.492Z,264.05
2018-07-21T12:39:38.475Z,238.12
2018-07-21T12:42:09.829Z,249.35
2018-07-21T12:44:41.906Z,246.47
2018-07-21T12:47:13.053Z,229.95
2018-07-21T12:49:44.119Z,243.80
2018-07-21T12:52:15.566Z,235.63
2018-07-21T12:54:46.967Z,236.52
2018-07-21T12:57:18.956Z,240.03
2018-07-21T12:59:56.284Z,238.80
2018-07-21T13:02:30.568Z,239.05
2018-07-21T13:05:02.224Z,238.77
2018-07-21T13:07:34.029Z,238.10
2018-07-21T13:10:06.896Z,236.10
2018-07-21T13:12:38.244Z,226.45
2018-07-21T13:15:09.659Z,237.57
2018-07-21T13:17:40.987Z,232.90
2018-07-21T13:20:13.973Z,227.40
2018-07-21T13:22:45.544Z,227.72
2018-07-21T13:25:16.696Z,238.55
2018-07-21T13:27:47.822Z,237.90
2018-07-21T13:30:18.835Z,236.70
2018-07-21T13:32:49.754Z,237.95
2018-07-21T13:35:22.893Z,232.95
2018-07-21T13:38:02.238Z,223.53
2018-07-21T13:40:35.040Z,227.25
2018-07-21T13:43:07.491Z,227.53
2018-07-21T13:45:38.710Z,216.90
2018-07-21T13:48:10.857Z,231.15
2018-07-21T13:50:41.842Z,226.20
2018-07-21T13:53:13.406Z,226.77
2018-07-21T13:55:44.420Z,226.37
2018-07-21T13:58:15.646Z,223.20
2018-07-21T14:00:46.916Z,222.20
2018-07-21T14:03:17.953Z,224.10
2018-07-21T14:05:48.971Z,226.42
2018-07-21T14:08:20.301Z,223.10
2018-07-21T14:10:51.744Z,223.70
2018-07-21T14:13:22.994Z,216.55
2018-07-21T14:15:53.867Z,224.92
2018-07-21T14:18:24.853Z,217.90
2018-07-21T14:20:57.109Z,224.42
2018-07-21T14:23:29.099Z,222.85
2018-07-21T14:26:00.773Z,228.18
2018-07-21T14:28:32.671Z,230.30
2018-07-21T14:31:03.721Z,216.85
2018-07-21T14:33:34.978Z,216.90
2018-07-21T14:36:06.180Z,218.67
2018-07-21T14:38:37.140Z,226.18
2018-07-21T14:41:08.190Z,219.25
2018-07-21T14:43:39.255Z,222.95
2018-07-21T14:46:10.369Z,221.18
2018-07-21T14:48:41.436Z,223.65
2018-07-21T14:51:16.417Z,235.60
2018-07-21T14:53:49.846Z,226.15
2018-07-21T14:56:22.169Z,220.27
2018-07-21T14:58:53.343Z,221.75
2018-07-21T15:01:24.542Z,221.72
2018-07-21T15:03:55.814Z,225.32
2018-07-21T15:06:26.838Z,225.93
2018-07-21T15:08:58.420Z,234.07
2018-07-21T15:11:30.215Z,222.27
2018-07-21T15:14:02.183Z,245.78
2018-07-21T15:16:33.896Z,231.68
2018-07-21T15:19:05.557Z,226.22
2018-07-21T15:21:38.877Z,237.12
2018-07-21T15:24:11.618Z,247.10
2018-07-21T15:26:44.348Z,220.30
2018-07-21T15:29:17.504Z,231.68
2018-07-21T15:31:55.099Z,231.07
2018-07-21T15:34:28.103Z,224.75
2018-07-21T15:36:59.407Z,233.32
2018-07-21T15:39:31.175Z,225.72
2018-07-21T15:42:04.463Z,235.60
2018-07-21T15:44:36.048Z,240.92
2018-07-21T15:47:07.624Z,248.05
2018-07-21T15:49:38.884Z,245.65
2018-07-21T15:52:11.621Z,233.32
2018-07-21T15:54:43.373Z,236.77
2018-07-21T15:57:14.999Z,225.40
2018-07-21T15:59:46.576Z,218.37
2018-07-21T16:02:19.101Z,231.13
2018-07-21T16:04:50.232Z,222.05
2018-07-21T16:07:21.667Z,217.07
2018-07-21T16:09:53.291Z,226.15
2018-07-21T16:12:24.728Z,229.13
2018-07-21T16:14:56.004Z,216.75
2018-07-21T16:17:27.228Z,223.65
2018-07-21T16:19:58.882Z,231.93
2018-07-21T16:22:30.450Z,222.98
2018-07-21T16:25:03.421Z,221.72
2018-07-21T16:27:35.070Z,222.95
2018-07-21T16:30:06.869Z,217.30
2018-07-21T16:32:40.588Z,232.87
2018-07-21T16:35:14.923Z,230.92
2018-07-21T16:37:47.314Z,226.35
2018-07-21T16:40:19.431Z,228.05
2018-07-21T16:42:51.011Z,239.57
2018-07-21T16:45:22.487Z,241.73
2018-07-21T16:47:53.900Z,232.92
2018-07-21T16:50:25.183Z,225.13
2018-07-21T16:52:57.457Z,222.45
2018-07-21T16:55:29.106Z,222.33
2018-07-21T16:58:04.452Z,218.37
2018-07-21T17:00:36.985Z,222.35
2018-07-21T17:03:10.073Z,224.20
2018-07-21T17:05:41.724Z,239.42
2018-07-21T17:08:13.407Z,227.65
2018-07-21T17:10:45.046Z,228.50
2018-07-21T17:13:16.969Z,222.33
2018-07-21T17:15:48.332Z,226.77
2018-07-21T17:18:19.643Z,242.50
2018-07-21T17:20:51.902Z,235.63
2018-07-21T17:23:23.512Z,235.57
2018-07-21T17:25:55.417Z,236.25
2018-07-21T17:28:27.006Z,229.15
2018-07-21T17:30:58.856Z,237.42
2018-07-21T17:33:30.759Z,256.40
2018-07-21T17:36:01.901Z,235.32
2018-07-21T17:38:33.615Z,226.27
2018-07-21T17:41:05.074Z,227.00
2018-07-21T17:43:40.939Z,229.20
2018-07-21T17:46:19.863Z,228.30
2018-07-21T17:48:52.642Z,231.82
2018-07-21T17:51:24.079Z,227.87
2018-07-21T17:54:09.340Z,217.55
2018-07-21T17:56:41.134Z,210.55
2018-07-21T17:59:12.680Z,239.25
2018-07-21T18:01:44.207Z,219.15
2018-07-21T18:04:15.880Z,218.88
2018-07-21T18:06:46.999Z,223.32
2018-07-21T18:09:18.456Z,219.28
2018-07-21T18:11:50.513Z,222.95
2018-07-21T18:14:22.087Z,228.42
2018-07-21T18:16:53.480Z,223.45
2018-07-21T18:19:24.787Z,232.75
2018-07-21T18:21:56.030Z,231.68
2018-07-21T18:24:27.467Z,241.15
2018-07-21T18:26:59.224Z,262.70
2018-07-21T18:29:30.588Z,258.32
2018-07-21T18:32:03.199Z,249.75
2018-07-21T18:34:34.520Z,230.45
2018-07-21T18:37:05.882Z,227.68
2018-07-21T18:39:38.036Z,223.00
2018-07-21T18:42:09.885Z,222.17
2018-07-21T18:44:41.255Z,222.82
2018-07-21T18:47:12.589Z,222.63
2018-07-21T18:49:43.960Z,228.73
2018-07-21T18:52:15.621Z,237.08
2018-07-21T18:54:48.384Z,235.68
2018-07-21T18:57:19.817Z,239.15
2018-07-21T18:59:51.022Z,235.72
2018-07-21T19:02:22.673Z,229.63
2018-07-21T19:04:53.998Z,237.57
2018-07-21T19:07:25.849Z,226.30
2018-07-21T19:09:57.355Z,230.50
2018-07-21T19:12:33.652Z,272.20
2018-07-21T19:15:05.992Z,241.05
2018-07-21T19:17:37.432Z,229.07
2018-07-21T19:20:14.091Z,221.57
2018-07-21T19:22:45.512Z,226.42
2018-07-21T19:25:23.818Z,219.47
2018-07-21T19:27:55.968Z,229.10
2018-07-21T19:30:27.435Z,235.80
2018-07-21T19:32:59.186Z,232.05
2018-07-21T19:35:31.983Z,229.20
2018-07-21T19:38:04.544Z,224.32
2018-07-21T19:40:36.092Z,212.93
2018-07-21T19:43:08.301Z,217.00
2018-07-21T19:45:40.662Z,233.50
2018-07-21T19:48:13.084Z,227.50
2018-07-21T19:50:44.458Z,229.05
2018-07-21T19:53:16.075Z,227.60
2018-07-21T19:55:48.213Z,219.75
2018-07-21T19:58:19.977Z,220.55
2018-07-21T20:00:51.344Z,221.62
2018-07-21T20:03:22.813Z,222.25
2018-07-21T20:06:00.298Z,278.67
2018-07-21T20:08:32.036Z,268.67
2018-07-21T20:11:03.471Z,259.52
2018-07-21T20:13:34.812Z,247.07
2018-07-21T20:16:06.603Z,231.43
2018-07-21T20:18:38.460Z,229.28
2018-07-21T20:21:09.684Z,225.87
2018-07-21T20:23:41.171Z,226.85
2018-07-21T20:26:12.427Z,224.60
2018-07-21T20:28:44.214Z,218.90
2018-07-21T20:31:15.986Z,220.73
2018-07-21T20:33:47.398Z,235.02
2018-07-21T20:36:18.556Z,232.55
2018-07-21T20:38:49.752Z,226.40
2018-07-21T20:41:21.491Z,228.37
2018-07-21T20:43:53.055Z,233.63
2018-07-21T20:46:25.062Z,217.18
2018-07-21T20:48:56.501Z,216.53
2018-07-21T20:51:28.212Z,227.70
2018-07-21T20:54:00.271Z,225.35
2018-07-21T20:56:31.772Z,226.65
2018-07-21T20:59:03.216Z,228.37
2018-07-21T21:01:34.642Z,228.52
2018-07-21T21:04:06.459Z,222.70
2018-07-21T21:06:38.458Z,219.55
2018-07-21T21:09:11.396Z,220.90
2018-07-21T21:11:42.876Z,220.20
2018-07-21T21:14:14.689Z,223.50
2018-07-21T21:16:45.976Z,217.22
2018-07-21T21:19:17.360Z,220.78
2018-07-21T21:21:48.993Z,219.47
2018-07-21T21:24:20.407Z,222.82
2018-07-21T21:26:51.745Z,218.40
2018-07-21T21:29:23.590Z,211.77
2018-07-21T21:31:54.847Z,227.05
2018-07-21T21:34:26.041Z,218.25
2018-07-21T21:36:57.579Z,209.37
2018-07-21T21:39:28.887Z,214.85
2018-07-21T21:42:00.190Z,213.80
2018-07-21T21:44:33.096Z,218.88
2018-07-21T21:47:04.407Z,211.37
2018-07-21T21:49:35.612Z,215.15
2018-07-21T21:52:06.883Z,209.10
2018-07-21T21:54:38.320Z,215.57
2018-07-21T21:57:09.746Z,208.35
2018-07-21T21:59:41.068Z,210.53
2018-07-21T22:02:13.038Z,215.10
2018-07-21T22:04:44.408Z,213.07
2018-07-21T22:07:15.740Z,205.92
2018-07-21T22:09:47.710Z,205.87
2018-07-21T22:12:19.027Z,214.60
2018-07-21T22:14:50.103Z,219.28
2018-07-21T22:17:21.340Z,213.32
2018-07-21T22:19:53.290Z,219.28
2018-07-21T22:22:24.333Z,223.38
2018-07-21T22:24:55.133Z,211.87
2018-07-21T22:27:26.002Z,208.20
2018-07-21T22:29:57.299Z,222.93
2018-07-21T22:32:28.212Z,220.93
2018-07-21T22:34:59.248Z,217.15
2018-07-21T22:37:30.446Z,211.77
2018-07-21T22:40:02.051Z,214.85
2018-07-21T22:42:33.174Z,216.38
2018-07-21T22:45:04.446Z,208.28
2018-07-21T22:47:35.418Z,216.75
2018-07-21T22:50:07.955Z,207.67
2018-07-21T22:52:40.253Z,218.17
2018-07-21T22:55:14.005Z,206.53
2018-07-21T22:57:45.003Z,212.75
2018-07-21T23:00:16.170Z,210.32
2018-07-21T23:02:47.325Z,206.97
2018-07-21T23:05:18.666Z,210.70
2018-07-21T23:07:50.108Z,217.80
2018-07-21T23:10:21.431Z,214.80
2018-07-21T23:12:53.146Z,210.97
2018-07-21T23:15:24.480Z,218.25
2018-07-21T23:17:55.502Z,209.87
2018-07-21T23:20:31.449Z,208.78
2018-07-21T23:23:07.707Z,225.82
2018-07-21T23:25:39.212Z,216.70
2018-07-21T23:28:12.662Z,214.80
2018-07-21T23:30:43.607Z,223.50
2018-07-21T23:33:15.129Z,214.82
2018-07-21T23:35:46.912Z,208.45
2018-07-21T23:38:19.287Z,213.87
2018-07-21T23:40:50.539Z,224.30
2018-07-21T23:43:21.835Z,228.27
2018-07-21T23:45:53.134Z,210.75
2018-07-21T23:48:24.270Z,221.28
2018-07-21T23:50:55.741Z,220.57
2018-07-21T23:53:27.479Z,214.27
2018-07-21T23:55:59.111Z,217.70
2018-07-21T23:58:31.142Z,216.05
